Flight Track Log - Related Links

Times and Time Zones

All times are in EDT time to prevent confusion due to time zone crossing. See the UAL341 flight status page for this flight to view local times or setup timezone preferences in your user account.


Time Position Orientation Groundspeed Altitude Reporting Facility
EDT Latitude Longitude Course Direction KTS MPH feet Rate Location/Type
Mon 09:09:01 AM 29.9569 -95.3369 98° East 166 191 1,200  Level Houston Center
Mon 09:09:19 AM 29.9472 -95.3236 130° Southeast 163 188 1,700 1,800 Climbing Houston Center
Mon 09:10:11 AM 29.9219 -95.2856 127° Southeast 192 221 3,300 1,131 Climbing Houston Center
Mon 09:11:21 AM 29.8631 -95.2061 131° Southeast 282 325 4,000 774 Climbing Houston Center
Mon 09:12:00 AM 29.9083 -94.7654 95° East  Level FlightAware Approximate
Mon 09:12:15 AM 29.8297 -95.1564 128° Southeast 269 310 4,900  Level Houston Center
Mon 09:13:00 AM 29.8948 -94.6225 98° East  Level FlightAware Approximate
Mon 09:13:16 AM 29.8075 -95.0711 107° East 292 336 8,100  Level Houston Center
Mon 09:14:00 AM 29.8781 -94.4801 98° East  Level FlightAware Approximate
Mon 09:14:18 AM 29.8125 -94.9744 87° East 302 348 10,600  Level Houston Center
Mon 09:15:20 AM 29.8236 -94.8331 85° East 374 430 12,700 2,081 Climbing Houston Center
Mon 09:16:22 AM 29.8328 -94.7058 85° East 393 452 14,900 2,098 Climbing Houston Center
Mon 09:17:23 AM 29.8433 -94.5728 85° East 409 471 17,000 1,951 Climbing Houston Center
Mon 09:18:25 AM 29.8533 -94.4350 85° East 425 489 18,900 1,790 Climbing Houston Center
Mon 09:19:27 AM 29.8631 -94.2958 85° East 434 499 20,700 1,694 Climbing Houston Center
Mon 09:20:29 AM 29.8567 -94.1519 93° East 451 519 22,400 1,597 Climbing Houston Center
Mon 09:21:31 AM 29.8561 -94.0031 90° East 464 534 24,000 1,597 Climbing Houston Center
Mon 09:22:33 AM 29.8772 -93.8253 82° East 468 539 25,700 1,415 Climbing Houston Center
Mon 09:23:34 AM 29.8928 -93.6733 83° East 479 551 26,900 1,073 Climbing Houston Center
Mon 09:24:36 AM 29.9081 -93.5183 83° East 489 563 27,900 919 Climbing Houston Center
Mon 09:25:38 AM 29.9253 -93.3589 83° East 502 578 28,800 968 Climbing Houston Center
Mon 09:26:40 AM 29.9417 -93.1958 83° East 515 593 29,900 1,161 Climbing Houston Center
Mon 09:27:42 AM 29.9614 -92.9994 83° East 519 597 31,200 1,210 Climbing Houston Center
Mon 09:28:44 AM 29.9767 -92.8372 84° East 512 589 32,400 1,065 Climbing Houston Center
Mon 09:29:46 AM 29.9886 -92.6719 85° East 517 595 33,400 919 Climbing Houston Center
Mon 09:30:48 AM 30.0022 -92.5056 85° East 522 601 34,300 823 Climbing Houston Center
Mon 09:31:50 AM 30.0181 -92.3392 84° East 524 603 35,100 732 Climbing Houston Center
Mon 09:32:51 AM 30.0575 -92.1425 77° East 527 606 35,800 878 Climbing Houston Center
Mon 09:33:53 AM 30.0886 -91.9772 78° East 528 608 36,900 532 Climbing Houston Center
Mon 09:34:55 AM 30.1211 -91.8147 77° East 523 602 36,900 48 Level Houston Center
Mon 09:35:57 AM 30.1500 -91.6558 78° East 520 598 37,000 48 Climbing Houston Center
Mon 09:36:59 AM 30.1814 -91.4928 77° East 520 598 37,000  Level Houston Center
Mon 09:38:01 AM 30.2111 -91.3292 78° East 520 598 37,000 -48 Level Houston Center
Mon 09:39:03 AM 30.2481 -91.1344 78° East 518 596 36,900  Descending Houston Center
Mon 09:40:05 AM 30.2781 -90.9717 78° East 517 595 37,000 48 Climbing Houston Center
Mon 09:41:07 AM 30.3083 -90.8086 78° East 519 597 37,000  Level Houston Center
Mon 09:42:09 AM 30.3369 -90.6464 78° East 517 595 37,000  Level Houston Center
Mon 09:43:11 AM 30.3669 -90.4833 78° East 518 596 37,000  Level Houston Center
Mon 09:44:13 AM 30.3942 -90.3200 79° East 518 596 37,000 -48 Level Houston Center
Mon 09:45:15 AM 30.4228 -90.1233 80° East 516 594 36,900 -48 Descending Houston Center
Mon 09:46:17 AM 30.4475 -89.9592 80° East 514 592 36,900 48 Level Houston Center
Mon 09:47:19 AM 30.4742 -89.7908 80° East 516 594 37,000 48 Climbing Houston Center
Mon 09:48:21 AM 30.4989 -89.6228 80° East 518 596 37,000  Level Houston Center
Mon 09:49:23 AM 30.5225 -89.4586 80° East 515 593 37,000  Level Houston Center
Mon 09:50:25 AM 30.5467 -89.2942 80° East 516 594 37,000 -48 Level Houston Center
Mon 09:51:27 AM 30.5656 -89.1628 80° East 517 595 36,900  Descending Houston Center
Mon 09:52:29 AM 30.5922 -88.9678 81° East 512 589 37,000 48 Climbing Houston Center
Mon 09:53:31 AM 30.6178 -88.7917 80° East 506 582 37,000  Level Houston Center
Mon 09:54:33 AM 30.6411 -88.6331 80° East 503 579 37,000  Level Houston Center
Mon 09:55:35 AM 30.6633 -88.4744 81° East 501 577 37,000  Level Houston Center
Mon 09:56:37 AM 30.6889 -88.2836 81° East 504 580 37,000  Level Houston Center
Mon 09:57:39 AM 30.7106 -88.1350 80° East 504 580 37,000  Level Houston Center
Mon 09:58:40 AM 30.7336 -87.9742 80° East 505 581 37,000  Level Houston Center
Mon 09:59:21 AM 30.7458 -87.8617 83° East 502 578 37,000  Level Jacksonville Center
Mon 10:00:21 AM 30.7667 -87.6983 82° East 502 578 37,000  Level Jacksonville Center
Mon 10:01:20 AM 30.7789 -87.5372 85° East 502 578 37,000  Level Jacksonville Center
Mon 10:02:20 AM 30.7867 -87.3756 87° East 497 572 37,000  Level Jacksonville Center
Mon 10:03:20 AM 30.7972 -87.1922 86° East 503 579 37,000  Level Jacksonville Center
Mon 10:04:20 AM 30.8067 -87.0306 86° East 503 579 37,000  Level Jacksonville Center
Mon 10:05:20 AM 30.8161 -86.8692 86° East 503 579 37,000  Level Jacksonville Center
Mon 10:06:20 AM 30.8253 -86.7097 86° East 498 573 37,000 -50 Level Jacksonville Center
Mon 10:07:20 AM 30.8231 -86.5647 91° East 492 566 36,900  Descending Jacksonville Center
Mon 10:08:20 AM 30.8214 -86.4050 91° East 498 573 37,000 50 Climbing Jacksonville Center
Mon 10:09:21 AM 30.8153 -86.2450 93° East 498 573 37,000  Level Jacksonville Center
Mon 10:10:20 AM 30.8131 -86.0853 91° East 498 573 37,000  Level Jacksonville Center
Mon 10:11:20 AM 30.8108 -85.9256 91° East 493 567 37,000  Level Jacksonville Center
Mon 10:12:20 AM 30.8061 -85.7658 92° East 493 567 37,000 -50 Level Jacksonville Center
Mon 10:13:20 AM 30.8036 -85.5942 91° East 493 567 36,900 -50 Descending Jacksonville Center
Mon 10:14:21 AM 30.8006 -85.4344 91° East 493 567 36,900 50 Level Jacksonville Center
Mon 10:15:21 AM 30.7956 -85.2747 92° East 493 567 37,000 50 Climbing Jacksonville Center
Mon 10:16:21 AM 30.7836 -85.1197 95° East 493 567 37,000  Level Jacksonville Center
Mon 10:17:20 AM 30.7444 -84.9714 107° East 482 555 37,000 -50 Level Jacksonville Center
Mon 10:18:21 AM 30.6944 -84.8203 111° Southeast 483 556 36,900  Descending Jacksonville Center
Mon 10:19:20 AM 30.6822 -84.6631 95° East 483 556 37,000 -100 Climbing Jacksonville Center
Mon 10:21:21 AM 30.7050 -84.3519 85° East 478 550 36,600 -433 Descending Jacksonville Center
Mon 10:22:20 AM 30.7025 -84.1925 91° East 478 550 35,700 -807 Descending Jacksonville Center
Mon 10:23:20 AM 30.6872 -84.0353 96° East 488 562 35,000 -347 Descending Jacksonville Center
Mon 10:24:21 AM 30.6742 -83.8756 95° East 488 562 35,000 -300 Level Jacksonville Center
Mon 10:25:20 AM 30.6583 -83.7208 97° East 488 562 34,400 -857 Descending Jacksonville Center
Mon 10:26:20 AM 30.6428 -83.5639 97° East 483 556 33,300 -1,600 Descending Jacksonville Center
Mon 10:27:20 AM 30.6328 -83.4214 95° East 483 556 31,200 -2,050 Descending Jacksonville Center
Mon 10:28:20 AM 30.6189 -83.2667 96° East 483 556 29,200 -1,950 Descending Jacksonville Center
Mon 10:29:20 AM 30.6003 -83.1147 98° East 483 556 27,300 -1,150 Descending Jacksonville Center
Mon 10:30:20 AM 30.5211 -83.0058 130° Southeast 442 509 26,900 -350 Descending Jacksonville Center
Mon 10:31:20 AM 30.4628 -82.8831 119° Southeast 437 503 26,600 -650 Descending Jacksonville Center
Mon 10:32:20 AM 30.4208 -82.7433 109° East 437 503 25,600 -850 Descending Jacksonville Center
Mon 10:33:20 AM 30.3811 -82.6133 109° East 443 510 24,900 -300 Descending Jacksonville Center
Mon 10:34:20 AM 30.3097 -82.5053 127° Southeast 420 483 25,000 50 Climbing Jacksonville Center
Mon 10:35:20 AM 30.2011 -82.4839 170° South 374 430 25,000 -50 Level Jacksonville Center
Mon 10:36:20 AM 30.0906 -82.4700 174° South 379 436 24,900  Descending Jacksonville Center
Mon 10:37:21 AM 29.9797 -82.4514 172° South 394 453 25,000 50 Climbing Jacksonville Center
Mon 10:38:20 AM 29.8731 -82.4064 160° South 399 459 25,000 -353 Level Jacksonville Center
Mon 10:39:20 AM 29.7686 -82.3542 157° South 404 465 24,300 -992 Descending Jacksonville Center
Mon 10:40:21 AM 29.6639 -82.3047 158° South 409 471 23,000 -1,700 Descending Jacksonville Center
Mon 10:41:20 AM 29.5614 -82.2550 157° South 409 471 20,900 -2,067 Descending Jacksonville Center
Mon 10:42:20 AM 29.4589 -82.2081 158° South 409 471 18,900 -1,850 Descending Jacksonville Center
Mon 10:43:20 AM 29.3606 -82.1611 157° South 398 458 17,200 -1,500 Descending Jacksonville Center
Mon 10:44:20 AM 29.2683 -82.1164 157° South 381 438 15,900 -1,587 Descending Jacksonville Center
Mon 10:45:21 AM 29.1783 -82.0744 158° South 368 423 14,000 -2,100 Descending Jacksonville Center
Mon 10:46:20 AM 29.0819 -82.0278 157° South 355 409 11,700 -1,500 Descending Jacksonville Center
Mon 10:47:21 AM 28.9942 -81.9858 157° South 350 403 11,000 -350 Descending Jacksonville Center
Mon 10:48:20 AM 28.9081 -81.9414 156° South 345 397 11,000  Level Jacksonville Center
Mon 10:49:20 AM 28.8500 -81.8667 132° Southeast 341 392 11,000 50 Level Orlando TRACON
Mon 10:50:21 AM 28.8000 -81.7833 124° Southeast 340 391 11,100 -298 Climbing Orlando TRACON
Mon 10:51:21 AM 28.7500 -81.6833 120° Southeast 324 373 10,400 -1,000 Descending Orlando TRACON
Mon 10:52:21 AM 28.7000 -81.6167 131° Southeast 298 343 9,100 -700 Descending Orlando TRACON
Mon 10:53:21 AM 28.6667 -81.5333 114° Southeast 244 281 9,000 -50 Descending Orlando TRACON
Mon 10:54:21 AM 28.6333 -81.4833 127° Southeast 216 249 9,000 50 Level Orlando TRACON
Mon 10:55:21 AM 28.5833 -81.4333 139° Southeast 213 245 9,100  Climbing Orlando TRACON
Mon 10:56:21 AM 28.5333 -81.4333 180° South 206 237 9,000 -550 Descending Orlando TRACON
Mon 10:57:21 AM 28.4667 -81.4167 168° South 202 232 8,000 -1,100 Descending Orlando TRACON
Mon 10:58:21 AM 28.4167 -81.4167 180° South 196 226 6,800 -1,250 Descending Orlando TRACON
Mon 10:59:21 AM 28.3667 -81.4167 180° South 204 235 5,500 -857 Descending Orlando TRACON
Mon 11:00:27 AM 28.3000 -81.4167 180° South 199 229 5,000 -667 Descending Orlando TRACON
Mon 11:01:27 AM 28.2500 -81.4167 180° South 194 223 4,100 -500 Descending Orlando TRACON
Mon 11:02:27 AM 28.2167 -81.3833 139° Southeast 194 223 4,000 -300 Descending Orlando TRACON
Mon 11:03:27 AM 28.2167 -81.3333 90° East 185 213 3,500 -500 Descending Orlando TRACON
Mon 11:04:27 AM 28.2667 -81.3167 16° North 177 204 3,000 -650 Descending Orlando TRACON
Mon 11:05:27 AM 28.3167 -81.3167 360° North 158 182 2,200 -800 Descending Orlando TRACON

Login

Don't have an account? Register now (free) for customized features, flight alerts, and more!